Time;durP1;ratioP1;P1;durP2;ratioP2;P2;SDS_P1;SDS_P2;PMS_P1;PMS_P2;Temp;Humidity;BMP_temperature;BMP_pressure;BME280_temperature;BME280_humidity;BME280_pressure;Samples;Min_cycle;Max_cycle;Signal;HPM_P1;HPM_P2
2021/04/30 00:01:15;;;;;;;12.85;7.45;;;;;;;8.57;60.14;100000.06;5020505;28;20053;-70
2021/04/30 00:03:42;;;;;;;12.07;6.88;;;;;;;8.54;60.05;100002.72;4989736;28;20052;-70
2021/04/30 00:06:08;;;;;;;18.67;7.13;;;;;;;8.46;60.63;100014.25;4989645;28;20711;-70
2021/04/30 00:08:34;;;;;;;13.57;7.80;;;;;;;8.61;60.12;100012.38;5004849;28;20058;-65
2021/04/30 00:11:00;;;;;;;15.75;7.50;;;;;;;8.49;60.23;100014.22;4990078;28;20415;-70
2021/04/30 00:13:26;;;;;;;19.00;7.63;;;;;;;8.52;60.72;100006.28;5007067;28;20541;-70
2021/04/30 00:15:52;;;;;;;20.17;7.82;;;;;;;8.36;61.01;100008.19;4972219;28;20549;-70
2021/04/30 00:18:18;;;;;;;15.13;8.43;;;;;;;8.24;60.85;99976.53;5005263;28;20049;-71
2021/04/30 00:20:55;;;;;;;14.90;7.57;;;;;;;8.41;60.55;100010.75;4989854;28;20098;-70
2021/04/30 00:23:29;;;;;;;12.73;8.32;;;;;;;8.39;60.74;99997.56;4975027;28;20501;-70
2021/04/30 00:25:57;;;;;;;15.60;8.10;;;;;;;8.44;60.65;99993.16;5007018;28;20046;-71
2021/04/30 00:28:24;;;;;;;14.18;8.18;;;;;;;8.34;60.53;100003.75;4973514;28;20442;-69
2021/04/30 00:31:00;;;;;;;13.40;8.02;;;;;;;8.38;59.89;99973.78;4986927;28;20069;-67
2021/04/30 00:33:27;;;;;;;18.23;8.40;;;;;;;8.57;60.06;100000.06;5003959;28;20042;-70
2021/04/30 00:35:53;;;;;;;13.88;8.48;;;;;;;8.54;59.77;99986.00;4971037;28;20056;-74
2021/04/30 00:38:20;;;;;;;15.80;7.80;;;;;;;8.60;60.08;99996.53;4988003;28;20099;-74
2021/04/30 00:40:49;;;;;;;17.95;8.00;;;;;;;8.60;59.70;99997.41;4969479;28;20053;-74
2021/04/30 00:43:16;;;;;;;14.73;8.30;;;;;;;8.61;59.66;99996.50;5004866;28;20046;-75
2021/04/30 00:45:43;;;;;;;13.90;7.95;;;;;;;8.38;60.50;99987.88;5003666;28;20052;-73
2021/04/30 00:48:10;;;;;;;13.85;7.60;;;;;;;8.39;59.95;99999.34;4986189;28;20070;-71
2021/04/30 00:50:37;;;;;;;18.80;8.35;;;;;;;8.38;60.66;99985.25;5005864;28;20781;-74
2021/04/30 00:53:03;;;;;;;15.82;8.18;;;;;;;8.37;60.55;99977.34;5004292;28;20125;-70
2021/04/30 00:55:29;;;;;;;18.60;8.75;;;;;;;8.47;59.99;99990.44;4954159;28;20038;-71
2021/04/30 00:57:56;;;;;;;18.30;8.55;;;;;;;8.58;59.60;99983.31;4984754;28;20049;-70
2021/04/30 01:00:24;;;;;;;19.50;9.27;;;;;;;8.67;59.56;99977.94;4969528;28;20057;-69
2021/04/30 01:02:50;;;;;;;15.18;8.40;;;;;;;8.74;58.94;99982.28;4986523;28;20046;-71
2021/04/30 01:05:17;;;;;;;22.38;8.27;;;;;;;8.73;59.05;99977.91;5002599;28;20044;-69
2021/04/30 01:07:44;;;;;;;19.95;8.00;;;;;;;8.71;58.87;99968.22;5005621;28;20109;-73
2021/04/30 01:10:11;;;;;;;16.63;8.35;;;;;;;8.66;59.11;99959.44;5005670;28;20053;-71
2021/04/30 01:12:38;;;;;;;15.10;7.53;;;;;;;8.61;59.19;99962.16;4988050;28;20093;-66
2021/04/30 01:15:06;;;;;;;17.60;8.10;;;;;;;8.73;59.16;99962.03;4986372;28;20045;-72
2021/04/30 01:17:34;;;;;;;16.20;8.18;;;;;;;8.56;59.28;99926.97;4988385;28;20153;-70
2021/04/30 01:20:00;;;;;;;20.83;8.30;;;;;;;8.66;58.87;99954.16;5005349;28;20050;-70
2021/04/30 01:22:40;;;;;;;15.80;8.38;;;;;;;8.84;58.66;99952.25;5003632;28;20498;-68
2021/04/30 01:25:09;;;;;;;17.55;8.60;;;;;;;8.83;58.57;99933.75;4971731;28;20129;-69
2021/04/30 01:27:36;;;;;;;16.85;7.88;;;;;;;8.98;58.27;99952.94;4955915;28;20069;-73
2021/04/30 01:30:05;;;;;;;13.27;8.10;;;;;;;8.96;58.38;99948.59;4969597;28;20085;-69
2021/04/30 01:32:31;;;;;;;16.23;7.70;;;;;;;9.09;58.37;99940.50;4971709;28;20045;-69
2021/04/30 01:34:57;;;;;;;11.25;7.60;;;;;;;9.20;58.04;99940.38;5005576;28;20046;-69
2021/04/30 01:37:25;;;;;;;13.85;8.35;;;;;;;9.21;57.99;99944.75;5003558;28;20482;-69
2021/04/30 01:39:51;;;;;;;16.63;8.18;;;;;;;8.97;58.29;99934.44;5006287;28;20089;-68
2021/04/30 01:42:17;;;;;;;19.17;7.90;;;;;;;9.06;58.17;99935.22;4971248;28;20466;-69
2021/04/30 01:44:42;;;;;;;18.25;7.97;;;;;;;8.81;57.96;99872.94;4987508;28;20084;-70
2021/04/30 01:47:08;;;;;;;14.18;8.15;;;;;;;9.26;57.49;99937.66;4987306;28;20073;-69
2021/04/30 01:49:34;;;;;;;11.05;7.20;;;;;;;8.53;58.63;99868.84;4988114;28;20041;-68
2021/04/30 01:52:00;;;;;;;16.70;7.82;;;;;;;8.94;58.30;99932.72;4987625;28;20142;-69
2021/04/30 01:54:26;;;;;;;11.85;7.55;;;;;;;9.04;57.93;99937.03;5003263;28;20038;-71
2021/04/30 01:56:52;;;;;;;12.65;7.95;;;;;;;9.06;57.54;99921.16;4971858;28;20042;-69
2021/04/30 01:59:18;;;;;;;12.15;6.75;;;;;;;9.07;57.81;99917.59;5005238;28;20108;-70
2021/04/30 02:01:44;;;;;;;10.73;7.05;;;;;;;9.12;57.12;99919.31;4987373;28;20080;-70
2021/04/30 02:04:11;;;;;;;13.23;7.00;;;;;;;9.17;57.50;99922.75;4987084;28;20050;-69
2021/04/30 02:06:39;;;;;;;14.55;6.85;;;;;;;9.00;57.95;99915.91;4988061;28;20504;-70
2021/04/30 02:09:08;;;;;;;18.65;7.28;;;;;;;9.09;57.47;99913.16;4987851;28;20141;-70
2021/04/30 02:11:36;;;;;;;9.95;6.50;;;;;;;9.26;57.60;99909.41;5003577;28;20533;-70
2021/04/30 02:14:04;;;;;;;14.15;6.78;;;;;;;8.98;57.34;99878.91;4987745;28;20053;-70
2021/04/30 02:16:31;;;;;;;13.57;6.75;;;;;;;9.00;57.46;99887.72;4986399;28;20053;-70
2021/04/30 02:18:58;;;;;;;11.55;6.60;;;;;;;9.13;56.85;99869.91;5004482;28;20045;-73
2021/04/30 02:21:24;;;;;;;11.32;6.82;;;;;;;9.21;57.29;99898.03;4970788;28;20545;-70
2021/04/30 02:23:50;;;;;;;17.80;6.80;;;;;;;9.35;56.84;99885.47;5006025;28;20037;-69
2021/04/30 02:26:16;;;;;;;14.25;6.85;;;;;;;9.40;56.82;99896.00;5005361;28;20069;-70
2021/04/30 02:28:45;;;;;;;15.32;6.70;;;;;;;9.38;56.53;99880.16;5003280;28;20203;-68
2021/04/30 02:31:13;;;;;;;16.15;6.57;;;;;;;9.29;56.56;99871.44;4986716;28;20155;-68
2021/04/30 02:33:40;;;;;;;17.15;6.32;;;;;;;9.39;56.84;99873.94;4991281;28;20044;-72
2021/04/30 02:36:06;;;;;;;25.48;7.25;;;;;;;9.51;56.34;99864.97;5022060;28;20077;-72
2021/04/30 02:38:33;;;;;;;13.55;6.70;;;;;;;9.22;56.70;99865.38;5008267;28;20042;-69
2021/04/30 02:40:59;;;;;;;14.30;6.57;;;;;;;9.45;56.89;99860.66;5009073;28;20038;-68
2021/04/30 02:43:25;;;;;;;15.35;7.15;;;;;;;9.47;56.71;99852.69;4991792;28;20478;-69
2021/04/30 02:45:51;;;;;;;13.57;6.75;;;;;;;9.58;56.63;99854.28;4988214;28;20042;-70
2021/04/30 02:48:29;;;;;;;14.40;6.60;;;;;;;9.41;56.28;99823.66;4991044;28;20041;-70
2021/04/30 02:50:57;;;;;;;18.17;6.97;;;;;;;9.65;56.20;99848.91;4975404;28;20045;-68
2021/04/30 02:53:24;;;;;;;13.38;6.80;;;;;;;9.39;56.93;99815.72;4989434;28;20166;-69
2021/04/30 02:55:50;;;;;;;12.57;6.88;;;;;;;9.57;56.52;99839.28;4991001;28;20814;-67
2021/04/30 02:58:16;;;;;;;16.67;6.65;;;;;;;9.54;56.12;99839.34;4990816;28;20050;-68
2021/04/30 03:00:42;;;;;;;12.18;7.05;;;;;;;9.54;56.52;99828.75;4972430;28;20043;-71
2021/04/30 03:03:09;;;;;;;15.07;7.05;;;;;;;9.62;56.84;99830.41;4990692;28;20042;-71
2021/04/30 03:05:36;;;;;;;17.13;7.80;;;;;;;9.49;56.33;99825.31;4975357;28;20050;-69
2021/04/30 03:08:02;;;;;;;20.08;6.57;;;;;;;9.60;56.09;99814.53;4974116;28;20065;-69
2021/04/30 03:10:29;;;;;;;17.92;6.68;;;;;;;9.73;56.40;99828.47;4988549;28;20068;-67
2021/04/30 03:12:55;;;;;;;21.55;6.75;;;;;;;9.58;56.53;99819.84;4958415;28;20038;-68
2021/04/30 03:15:22;;;;;;;21.00;7.60;;;;;;;9.66;56.19;99801.22;4957665;28;20037;-69
2021/04/30 03:17:49;;;;;;;13.80;6.30;;;;;;;9.85;56.00;99820.34;5005995;28;20528;-71
2021/04/30 03:20:18;;;;;;;13.48;6.05;;;;;;;9.93;55.62;99813.16;5023653;28;20149;-72
2021/04/30 03:22:45;;;;;;;10.35;6.53;;;;;;;9.88;55.17;99807.06;4990943;28;20056;-70
2021/04/30 03:25:12;;;;;;;14.65;6.20;;;;;;;9.99;54.98;99810.38;4974446;28;20069;-72
2021/04/30 03:27:38;;;;;;;15.68;6.80;;;;;;;10.13;54.96;99813.72;4988953;28;20053;-71
2021/04/30 03:30:06;;;;;;;17.63;6.57;;;;;;;10.07;54.85;99806.75;4973604;28;20451;-69
2021/04/30 03:32:35;;;;;;;12.43;6.30;;;;;;;10.27;54.52;99803.72;4973512;28;20518;-69
2021/04/30 03:35:01;;;;;;;11.07;5.65;;;;;;;10.29;54.46;99800.16;4988155;28;20187;-69
2021/04/30 03:37:30;;;;;;;11.55;5.05;;;;;;;10.11;54.99;99789.88;5008192;28;20037;-70
2021/04/30 03:39:55;;;;;;;10.32;5.57;;;;;;;10.25;53.98;99792.28;5007627;28;20053;-70
2021/04/30 03:42:24;;;;;;;10.10;5.30;;;;;;;10.41;54.09;99784.03;4984897;28;20045;-71
2021/04/30 03:44:50;;;;;;;14.07;5.47;;;;;;;10.44;53.62;99785.75;4954810;28;20046;-70
2021/04/30 03:47:16;;;;;;;14.30;5.25;;;;;;;10.44;53.96;99783.94;4989510;28;20421;-71
2021/04/30 03:50:00;;;;;;;11.85;4.78;;;;;;;10.62;53.67;99790.69;4988180;28;20068;-71
2021/04/30 03:52:39;;;;;;;15.45;5.68;;;;;;;10.66;53.37;99787.06;5103561;27;20355;-69
2021/04/30 03:55:06;;;;;;;11.18;5.00;;;;;;;10.60;52.79;99779.25;5084765;28;20185;-70
2021/04/30 03:57:32;;;;;;;12.95;5.10;;;;;;;10.74;53.29;99783.34;5099425;28;20050;-70
2021/04/30 03:59:58;;;;;;;13.20;5.43;;;;;;;10.35;53.45;99770.00;5101481;28;20052;-70
2021/04/30 04:02:24;;;;;;;9.63;4.95;;;;;;;10.67;53.12;99767.59;5121697;28;20086;-70
2021/04/30 04:04:50;;;;;;;16.88;5.50;;;;;;;10.68;53.33;99769.34;5103610;28;20138;-69
2021/04/30 04:07:19;;;;;;;17.05;5.60;;;;;;;10.77;52.86;99764.75;5105572;28;20043;-69
2021/04/30 04:09:45;;;;;;;14.35;5.70;;;;;;;10.73;52.58;99747.16;5122191;28;20415;-69
2021/04/30 04:12:11;;;;;;;9.63;5.18;;;;;;;10.85;52.69;99760.16;5121870;28;20040;-71
2021/04/30 04:14:42;;;;;;;11.93;5.68;;;;;;;11.00;52.23;99753.63;5120281;28;20048;-74
2021/04/30 04:17:09;;;;;;;13.23;5.18;;;;;;;10.83;52.25;99753.97;5121852;28;20050;-69
2021/04/30 04:19:35;;;;;;;11.85;5.78;;;;;;;11.04;51.88;99748.19;5104707;28;20073;-69
2021/04/30 04:22:01;;;;;;;14.00;5.72;;;;;;;10.72;52.56;99752.47;5102818;28;20083;-72
2021/04/30 04:24:27;;;;;;;10.40;5.63;;;;;;;10.94;52.40;99756.41;5122039;27;20106;-72
2021/04/30 04:26:52;;;;;;;15.48;5.53;;;;;;;10.83;52.04;99747.78;5120681;28;20046;-70
2021/04/30 04:29:18;;;;;;;17.35;6.10;;;;;;;10.69;52.59;99755.19;5122990;27;20118;-69
2021/04/30 04:31:44;;;;;;;16.17;5.65;;;;;;;11.05;52.41;99747.31;5119640;28;20081;-68
2021/04/30 04:34:10;;;;;;;13.38;5.15;;;;;;;11.23;51.34;99738.94;5121420;27;20047;-69
2021/04/30 04:36:36;;;;;;;18.08;5.38;;;;;;;11.35;50.87;99712.09;5122968;27;20074;-68
2021/04/30 04:39:03;;;;;;;13.35;6.15;;;;;;;11.36;50.95;99718.28;5120168;27;20071;-70
2021/04/30 04:41:29;;;;;;;13.90;6.03;;;;;;;11.64;50.14;99737.97;5103841;28;20082;-70
2021/04/30 04:43:54;;;;;;;17.77;5.45;;;;;;;11.84;49.69;99736.56;5122810;28;20039;-70
2021/04/30 04:46:20;;;;;;;17.15;5.30;;;;;;;11.69;49.89;99731.66;5122004;27;20126;-69
2021/04/30 04:48:46;;;;;;;11.35;4.90;;;;;;;12.06;49.96;99735.09;5119434;28;20074;-66
2021/04/30 04:51:12;;;;;;;14.95;5.28;;;;;;;12.29;49.29;99734.47;5103591;28;20142;-70
2021/04/30 04:53:38;;;;;;;13.38;5.00;;;;;;;12.09;49.19;99728.81;5108337;28;20047;-69
2021/04/30 04:56:04;;;;;;;23.67;5.65;;;;;;;12.52;49.09;99719.63;5102092;28;20089;-68
2021/04/30 04:58:30;;;;;;;20.52;6.22;;;;;;;12.26;49.19;99727.44;5082228;28;20082;-71
2021/04/30 05:00:56;;;;;;;11.57;5.10;;;;;;;12.61;49.54;99703.41;5062357;28;20488;-71
2021/04/30 05:03:22;;;;;;;15.95;5.55;;;;;;;12.65;48.79;99713.03;5089218;28;20066;-69
2021/04/30 05:05:48;;;;;;;29.77;6.97;;;;;;;12.73;48.61;99712.78;5086066;28;20070;-76
2021/04/30 05:08:14;;;;;;;11.20;4.05;;;;;;;12.00;48.38;99713.13;5088130;28;20055;-68
2021/04/30 05:10:40;;;;;;;20.70;4.38;;;;;;;12.30;47.42;99702.53;5085925;28;20039;-72
2021/04/30 05:13:06;;;;;;;21.20;4.80;;;;;;;12.38;47.15;99699.66;5088247;28;20075;-71
2021/04/30 05:15:32;;;;;;;12.63;4.20;;;;;;;12.69;46.42;99687.19;5066913;28;20483;-70
2021/04/30 05:18:03;;;;;;;12.23;4.20;;;;;;;12.67;46.45;99697.88;5087304;28;20055;-70
2021/04/30 05:20:29;;;;;;;14.65;5.38;;;;;;;12.36;47.20;99701.47;5086370;28;20040;-69
2021/04/30 05:22:55;;;;;;;17.02;3.88;;;;;;;12.42;46.59;99683.56;5086098;28;20090;-68
2021/04/30 05:25:20;;;;;;;11.70;4.45;;;;;;;12.97;46.30;99685.44;5086253;28;20079;-70
2021/04/30 05:27:46;;;;;;;9.85;3.92;;;;;;;13.34;45.54;99691.41;5081629;28;20392;-72
2021/04/30 05:30:13;;;;;;;7.32;3.97;;;;;;;13.10;45.46;99682.38;5105802;28;20090;-72
2021/04/30 05:32:39;;;;;;;10.90;4.00;;;;;;;12.77;46.16;99667.44;5063042;28;20045;-71
2021/04/30 05:35:06;;;;;;;12.40;4.32;;;;;;;13.07;46.32;99682.50;5066094;28;20123;-70
2021/04/30 05:37:33;;;;;;;10.30;3.95;;;;;;;12.95;46.14;99669.53;5049758;28;20064;-71
2021/04/30 05:39:59;;;;;;;11.93;4.45;;;;;;;13.13;45.82;99673.44;5066506;28;20174;-71
2021/04/30 05:42:27;;;;;;;12.13;4.38;;;;;;;12.93;46.14;99666.03;5086028;28;20768;-71
2021/04/30 05:44:53;;;;;;;14.38;4.10;;;;;;;13.24;45.22;99660.66;5085088;28;20089;-72
2021/04/30 05:47:20;;;;;;;12.02;3.75;;;;;;;13.37;44.50;99662.88;5087915;28;20036;-72
2021/04/30 05:49:46;;;;;;;15.52;4.53;;;;;;;12.95;45.13;99666.00;5104776;28;20448;-71
2021/04/30 05:52:13;;;;;;;10.43;3.88;;;;;;;12.77;45.64;99650.59;5106284;28;20054;-71
2021/04/30 05:54:38;;;;;;;13.68;3.92;;;;;;;12.67;46.14;99657.13;5108054;28;20092;-70
2021/04/30 05:57:05;;;;;;;15.05;4.38;;;;;;;12.87;45.48;99663.59;5088031;28;20043;-74
2021/04/30 05:59:30;;;;;;;8.57;3.67;;;;;;;12.91;45.73;99653.72;5088878;28;20851;-69
2021/04/30 06:01:56;;;;;;;7.53;3.95;;;;;;;12.97;45.66;99656.16;5106946;28;20047;-68
2021/04/30 06:04:24;;;;;;;7.57;3.78;;;;;;;13.00;45.53;99640.13;5106660;28;20046;-69
2021/04/30 06:06:50;;;;;;;9.77;4.45;;;;;;;13.13;45.13;99657.44;5106464;28;20067;-69
2021/04/30 06:09:17;;;;;;;11.48;4.28;;;;;;;13.19;45.10;99649.28;5107973;28;20510;-68
2021/04/30 06:11:44;;;;;;;10.30;4.30;;;;;;;13.15;45.41;99645.88;5107080;28;20122;-69
2021/04/30 06:14:13;;;;;;;7.57;3.67;;;;;;;13.18;45.01;99651.06;5105211;28;20036;-70
2021/04/30 06:16:39;;;;;;;14.10;4.47;;;;;;;13.10;44.99;99639.78;5106280;28;20047;-72
2021/04/30 06:19:05;;;;;;;7.97;3.85;;;;;;;13.21;45.12;99627.00;5106179;28;20108;-69
2021/04/30 06:21:31;;;;;;;10.30;4.15;;;;;;;13.32;44.67;99613.34;5107100;28;20044;-75
2021/04/30 06:23:57;;;;;;;6.68;3.65;;;;;;;13.36;44.99;99629.16;5087887;28;20046;-71
2021/04/30 06:26:23;;;;;;;11.50;3.83;;;;;;;13.48;45.10;99609.22;5105898;28;20036;-72
2021/04/30 06:28:49;;;;;;;10.25;3.30;;;;;;;13.52;44.54;99625.06;5065021;28;20052;-69
2021/04/30 06:31:15;;;;;;;8.82;3.50;;;;;;;13.61;44.26;99616.75;5057104;28;20053;-68
2021/04/30 06:33:42;;;;;;;7.75;3.35;;;;;;;13.83;44.13;99628.41;5085057;28;20526;-67
2021/04/30 06:36:08;;;;;;;4.28;2.65;;;;;;;13.57;44.57;99630.25;5086127;28;20135;-66
2021/04/30 06:38:37;;;;;;;14.57;3.67;;;;;;;13.97;43.69;99616.38;5084679;28;20127;-67
2021/04/30 06:41:03;;;;;;;9.77;2.92;;;;;;;13.82;43.64;99626.66;5083736;28;20139;-67
2021/04/30 06:43:29;;;;;;;10.20;5.43;;;;;;;14.17;43.74;99595.19;5087194;28;20044;-67
2021/04/30 06:45:56;;;;;;;16.80;3.83;;;;;;;14.32;43.34;99616.84;5074400;28;20047;-67
2021/04/30 06:48:23;;;;;;;14.35;4.72;;;;;;;14.16;43.62;99594.31;5105362;28;20035;-69
2021/04/30 06:50:49;;;;;;;7.60;3.67;;;;;;;14.50;43.17;99607.28;5103930;28;20079;-66
2021/04/30 06:53:15;;;;;;;11.63;3.17;;;;;;;14.25;43.83;99619.81;5071465;28;20044;-68
2021/04/30 06:55:41;;;;;;;11.75;3.40;;;;;;;14.28;43.83;99599.22;5081297;28;20112;-68
2021/04/30 06:58:07;;;;;;;17.45;3.55;;;;;;;14.45;43.81;99620.81;5075112;28;20082;-67
2021/04/30 07:00:34;;;;;;;17.88;5.50;;;;;;;14.78;43.12;99603.50;5104133;28;20091;-67
2021/04/30 07:03:00;;;;;;;13.32;3.78;;;;;;;14.83;42.98;99612.19;5087641;28;20065;-66
2021/04/30 07:05:26;;;;;;;9.65;3.20;;;;;;;14.80;42.82;99607.00;5104977;28;20035;-68
2021/04/30 07:07:56;;;;;;;9.10;3.58;;;;;;;15.01;42.25;99590.09;5103298;28;20260;-69
2021/04/30 07:10:23;;;;;;;9.88;3.65;;;;;;;14.98;42.63;99595.56;5106117;28;20137;-69
2021/04/30 07:12:51;;;;;;;9.88;3.60;;;;;;;15.09;42.37;99585.31;5105116;28;20870;-69
2021/04/30 07:15:17;;;;;;;10.13;3.00;;;;;;;14.67;42.89;99597.69;5103202;28;20043;-69
2021/04/30 07:17:44;;;;;;;13.10;3.45;;;;;;;14.87;42.76;99594.25;5106247;28;20388;-69
2021/04/30 07:20:11;;;;;;;10.02;2.97;;;;;;;14.57;42.68;99604.34;5087473;28;20091;-69
2021/04/30 07:22:40;;;;;;;9.77;2.75;;;;;;;14.60;42.74;99593.53;5086277;28;20070;-72
2021/04/30 07:25:07;;;;;;;7.47;3.15;;;;;;;14.64;42.54;99596.97;5106255;28;20058;-72
2021/04/30 07:27:33;;;;;;;11.48;2.65;;;;;;;14.78;42.63;99574.13;5087982;28;20563;-68
2021/04/30 07:29:59;;;;;;;7.20;2.70;;;;;;;15.06;42.19;99568.53;5106750;28;20131;-69
2021/04/30 07:32:27;;;;;;;5.38;2.70;;;;;;;14.94;43.01;99569.91;5084958;28;20058;-70
2021/04/30 07:34:53;;;;;;;5.93;2.53;;;;;;;14.80;43.14;99563.41;5105726;28;20032;-68
2021/04/30 07:37:19;;;;;;;19.80;5.47;;;;;;;15.07;42.96;99563.13;5104666;28;20093;-69
2021/04/30 07:39:48;;;;;;;20.27;3.67;;;;;;;15.48;41.97;99564.09;5103245;28;20122;-68
2021/04/30 07:42:17;;;;;;;7.22;2.80;;;;;;;15.23;42.18;99566.91;5105122;28;20044;-69
2021/04/30 07:44:44;;;;;;;5.57;2.63;;;;;;;15.18;42.71;99550.19;5104275;28;20057;-68
2021/04/30 07:47:10;;;;;;;5.70;3.00;;;;;;;15.16;42.22;99552.09;5087143;28;20130;-71
2021/04/30 07:49:37;;;;;;;5.35;2.80;;;;;;;15.16;42.55;99541.41;5086282;28;20047;-67
2021/04/30 07:52:03;;;;;;;9.55;2.65;;;;;;;15.43;41.92;99556.25;5106020;28;20056;-68
2021/04/30 07:54:29;;;;;;;9.30;2.28;;;;;;;15.18;41.45;99552.00;5088309;28;20088;-66
2021/04/30 07:56:59;;;;;;;9.73;2.95;;;;;;;15.20;42.17;99532.31;5066299;28;20039;-65
2021/04/30 07:59:25;;;;;;;3.03;2.33;;;;;;;15.05;42.07;99546.31;5083440;28;20035;-68
2021/04/30 08:01:55;;;;;;;6.20;2.30;;;;;;;15.04;42.52;99546.38;5064851;28;20082;-68
2021/04/30 08:04:30;;;;;;;4.97;2.80;;;;;;;15.08;42.46;99508.81;5082894;28;20090;-72
2021/04/30 08:06:56;;;;;;;11.57;3.13;;;;;;;15.28;42.09;99518.63;5047187;28;20090;-68
2021/04/30 08:09:23;;;;;;;7.43;2.55;;;;;;;15.25;42.25;99529.44;5066449;28;20036;-65
2021/04/30 08:11:50;;;;;;;9.27;2.55;;;;;;;15.12;42.46;99512.19;5084453;28;20040;-68
2021/04/30 08:14:46;;;;;;;;;;;;;;;;;;;;;
2021/04/30 08:17:12;;;;;;;4.85;2.15;;;;;;;15.06;41.05;99541.81;5059132;28;20465;-73
2021/04/30 08:20:02;;;;;;;4.47;2.45;;;;;;;15.05;41.20;99532.09;5083503;28;20107;-69
2021/04/30 08:22:31;;;;;;;27.98;3.35;;;;;;;15.06;41.05;99504.44;5080375;28;20050;-67
2021/04/30 08:24:57;;;;;;;11.60;2.08;;;;;;;15.00;41.58;99534.97;5082984;28;20023;-64
2021/04/30 08:27:28;;;;;;;14.43;3.33;;;;;;;15.03;42.54;99505.44;5084201;28;20043;-69
2021/04/30 08:29:57;;;;;;;14.48;3.25;;;;;;;14.94;42.46;99523.63;5077434;28;20139;-67
2021/04/30 08:32:23;;;;;;;10.23;2.65;;;;;;;14.66;42.99;99528.38;5065362;28;20139;-68
2021/04/30 08:35:10;;;;;;;6.68;2.35;;;;;;;14.54;43.52;99527.06;5082217;28;20538;-68
2021/04/30 08:38:29;;;;;;;18.75;3.10;;;;;;;14.15;47.37;99549.06;5067437;28;20166;-72
2021/04/30 08:41:03;;;;;;;13.02;3.35;;;;;;;13.75;49.53;99531.00;5080207;28;20139;-72
2021/04/30 08:43:33;;;;;;;22.63;3.78;;;;;;;13.58;50.83;99528.94;5087512;28;20044;-65
2021/04/30 08:46:05;;;;;;;9.10;3.40;;;;;;;13.26;53.04;99534.53;5072350;28;20040;-70
2021/04/30 08:48:33;;;;;;;6.47;3.20;;;;;;;13.53;53.22;99535.38;5081661;28;20034;-66
2021/04/30 08:51:00;;;;;;;6.53;3.10;;;;;;;12.97;56.26;99513.34;5086421;28;20048;-65
2021/04/30 08:53:27;;;;;;;5.88;3.13;;;;;;;12.79;55.97;99534.34;5085295;28;20067;-66
2021/04/30 08:55:54;;;;;;;6.65;3.28;;;;;;;12.67;56.50;99538.25;5074324;28;20072;-66
2021/04/30 08:58:30;;;;;;;9.45;3.50;;;;;;;12.45;57.93;99539.88;5076395;28;20045;-65
2021/04/30 09:00:56;;;;;;;7.15;3.80;;;;;;;12.39;59.03;99534.72;5082396;28;20044;-68
2021/04/30 09:03:23;;;;;;;9.35;3.90;;;;;;;12.21;60.65;99500.75;5085044;28;20762;-66
2021/04/30 09:05:55;;;;;;;5.68;3.30;;;;;;;12.21;59.89;99522.03;5069168;28;20514;-64
2021/04/30 09:08:24;;;;;;;7.40;3.83;;;;;;;12.14;59.98;99516.91;5086121;28;20506;-65
2021/04/30 09:10:51;;;;;;;4.55;3.15;;;;;;;12.18;60.18;99503.50;5067865;28;20427;-67
2021/04/30 09:13:21;;;;;;;4.82;3.58;;;;;;;11.96;62.05;99482.94;5086285;28;20047;-65
2021/04/30 09:16:04;;;;;;;4.72;3.40;;;;;;;11.96;62.27;99514.84;5068344;28;20500;-65
2021/04/30 09:18:32;;;;;;;8.88;3.80;;;;;;;12.01;61.99;99508.47;5070300;28;20047;-68
2021/04/30 09:21:11;;;;;;;5.75;3.60;;;;;;;11.94;62.94;99487.41;5089435;28;20413;-66
2021/04/30 09:23:44;;;;;;;5.25;3.15;;;;;;;11.88;62.84;99475.22;5058197;28;20044;-63
2021/04/30 09:26:27;;;;;;;9.38;4.10;;;;;;;12.17;62.49;99467.22;5085527;28;20051;-66
2021/04/30 09:29:02;;;;;;;6.00;4.40;;;;;;;12.49;61.51;99476.81;5074034;28;20051;-65
2021/04/30 09:31:47;;;;;;;6.05;3.70;;;;;;;12.58;61.70;99448.13;5082347;28;20047;-66
2021/04/30 09:34:24;;;;;;;5.88;4.20;;;;;;;12.58;61.56;99472.06;5085701;28;20044;-66
2021/04/30 09:37:17;;;;;;;7.50;3.78;;;;;;;12.39;61.61;99480.72;5065445;28;20531;-66
2021/04/30 09:39:53;;;;;;;6.10;3.83;;;;;;;12.34;62.14;99469.34;5041508;28;20044;-65
2021/04/30 09:42:23;;;;;;;5.15;3.47;;;;;;;12.42;60.68;99460.19;5065983;28;20571;-65
2021/04/30 09:44:52;;;;;;;9.63;4.28;;;;;;;12.65;60.63;99456.78;5066242;28;20042;-72
2021/04/30 09:47:24;;;;;;;8.18;3.70;;;;;;;12.52;59.38;99440.38;5078361;28;21070;-64
2021/04/30 09:50:01;;;;;;;4.88;3.78;;;;;;;12.77;60.41;99441.28;5086134;28;20557;-65
2021/04/30 09:52:31;;;;;;;7.85;4.68;;;;;;;12.89;59.93;99439.97;5084668;28;20068;-63
2021/04/30 09:55:01;;;;;;;5.13;3.85;;;;;;;12.64;59.82;99450.59;5086421;28;20131;-66
2021/04/30 09:57:33;;;;;;;9.32;4.50;;;;;;;12.61;59.01;99432.09;5082042;28;20104;-65
2021/04/30 10:00:02;;;;;;;6.43;3.78;;;;;;;12.68;59.27;99422.09;5106092;28;20044;-65
2021/04/30 10:02:34;;;;;;;6.70;3.58;;;;;;;12.63;60.17;99418.72;5100969;28;20062;-64
2021/04/30 10:05:21;;;;;;;9.47;4.07;;;;;;;12.47;60.45;99404.22;5086201;28;20054;-64
2021/04/30 10:07:55;;;;;;;7.57;4.38;;;;;;;12.51;61.02;99395.22;5053766;28;20036;-67
2021/04/30 10:10:39;;;;;;;7.38;4.35;;;;;;;12.45;60.77;99390.97;5075737;28;20097;-64
2021/04/30 10:13:07;;;;;;;5.75;3.80;;;;;;;12.51;60.96;99395.22;5089264;28;20130;-66
2021/04/30 10:15:36;;;;;;;5.85;4.20;;;;;;;12.41;61.12;99394.66;5106316;28;20043;-66
2021/04/30 10:18:02;;;;;;;9.45;4.95;;;;;;;12.58;60.68;99388.78;5086713;28;20500;-73
2021/04/30 10:20:29;;;;;;;6.15;4.45;;;;;;;12.59;60.37;99379.88;5091410;28;20040;-72
2021/04/30 10:22:57;;;;;;;5.13;3.47;;;;;;;12.52;59.57;99383.66;5052298;28;20047;-71
2021/04/30 10:25:28;;;;;;;7.40;4.18;;;;;;;12.29;60.06;99372.91;5066026;28;20785;-71
2021/04/30 10:28:01;;;;;;;10.48;5.15;;;;;;;12.60;60.74;99362.97;5066536;28;20047;-70
2021/04/30 10:30:55;;;;;;;8.05;4.93;;;;;;;12.66;59.68;99339.69;5082912;28;20044;-71
2021/04/30 10:33:32;;;;;;;12.60;5.10;;;;;;;12.92;59.66;99352.06;5105351;28;20055;-71
2021/04/30 10:36:04;;;;;;;7.80;4.75;;;;;;;12.97;59.32;99337.72;5052609;28;20040;-69
2021/04/30 10:38:53;;;;;;;7.13;4.70;;;;;;;12.85;59.81;99315.94;5064729;28;20048;-71
2021/04/30 10:41:43;;;;;;;13.20;5.00;;;;;;;12.93;59.64;99329.84;5075405;28;20526;-69
2021/04/30 10:44:21;;;;;;;9.77;4.95;;;;;;;13.07;59.16;99330.25;5086567;28;20051;-70
2021/04/30 10:47:12;;;;;;;8.85;4.65;;;;;;;13.13;58.79;99320.25;5084196;28;20048;-74
2021/04/30 10:50:55;;;;;;;9.02;4.68;;;;;;;13.39;58.76;99314.81;5086251;28;20540;-70
2021/04/30 10:57:38;;;;;;;;;;;;;;;;;;;;;
2021/04/30 11:00:54;;;;;;;6.45;3.58;;;;;;;13.71;57.71;99311.75;5066388;28;20508;-69
2021/04/30 11:03:23;;;;;;;7.43;4.35;;;;;;;14.31;56.01;99287.06;4989321;28;20099;-69
2021/04/30 11:06:51;;;;;;;7.00;4.40;;;;;;;14.23;55.67;99267.84;4987961;28;20052;-70
2021/04/30 11:09:13;;;;;;;8.00;4.00;;;;;;;14.05;56.17;99255.28;4972317;28;20049;-72
2021/04/30 11:11:42;;;;;;;15.48;4.93;;;;;;;14.57;55.63;99262.81;5002025;28;20046;-70
2021/04/30 11:14:27;;;;;;;6.15;4.25;;;;;;;14.66;55.11;99266.84;4987603;28;20042;-69
2021/04/30 11:16:55;;;;;;;9.25;3.90;;;;;;;14.40;54.46;99248.47;4985397;28;20049;-69
2021/04/30 11:19:26;;;;;;;7.43;4.55;;;;;;;14.61;54.39;99263.53;4987559;28;20129;-69
2021/04/30 11:21:56;;;;;;;8.75;5.72;;;;;;;14.70;54.40;99231.09;5004330;28;20185;-71
2021/04/30 11:24:36;;;;;;;6.90;4.53;;;;;;;14.63;54.95;99224.31;5002264;28;20152;-73
2021/04/30 11:27:19;;;;;;;6.28;4.50;;;;;;;14.09;54.94;99237.34;4987531;28;20045;-66
2021/04/30 11:29:46;;;;;;;6.38;5.07;;;;;;;14.40;56.02;99221.78;5002056;28;20092;-64
2021/04/30 11:32:24;;;;;;;5.65;4.10;;;;;;;14.36;55.32;99236.19;5003227;28;20053;-63
2021/04/30 11:35:01;;;;;;;9.43;5.15;;;;;;;14.36;55.34;99202.38;5003477;28;20184;-63
2021/04/30 11:37:30;;;;;;;8.45;4.53;;;;;;;14.34;55.90;99222.03;5014728;28;20052;-62
2021/04/30 11:39:59;;;;;;;10.05;4.57;;;;;;;14.31;56.01;99223.06;5064301;28;20686;-63
2021/04/30 11:42:31;;;;;;;8.02;4.90;;;;;;;14.40;55.19;99219.97;5065589;28;20508;-78
2021/04/30 11:45:12;;;;;;;7.80;3.90;;;;;;;14.41;55.04;99221.72;5066118;28;20139;-67
2021/04/30 11:47:41;;;;;;;9.45;4.28;;;;;;;14.40;54.88;99219.97;5061653;28;20508;-64
2021/04/30 11:50:10;;;;;;;7.90;4.13;;;;;;;14.48;54.48;99224.97;5082962;28;20036;-69